• Join FlightAware (Why Join?)
  • Login
  • US Flag 
09:06AM EDT


 

Airport Tracker/Info


-or-


 

Live Flight TrackerFlight Track Log ✈ JZA8990 ✈ 08-May-2013 ✈ CYHZ - CYYT

Flight Track Log - Related Links

Times and Time Zones

All times are in EDT time to prevent confusion due to time zone crossing. See the JZA8990 flight status page for this flight to view local times or setup timezone preferences in your user account.

Time Position Orientation Groundspeed Altitude Reporting Facility
EDT Latitude Longitude Course Direction KTS MPH feet Rate Location/Type
05:38AM 44.8667 -63.5000 360° North 10 12 400  Level Moncton Center
05:39AM 44.8667 -63.5000 215° Southwest 40 46 500 900 Climbing Moncton Center
05:40AM 44.8167 -63.5500 215° Southwest 180 207 2,200 1,800 Climbing Moncton Center
05:41AM 44.7667 -63.5500 180° South 240 276 4,100 2,100 Climbing Moncton Center
05:42AM 44.7667 -63.4333 90° East 280 322 6,500 2,580 Climbing Moncton Center
05:43AM 44.8000 -63.3333 65° Northeast 290 334 9,300 2,460 Climbing Moncton Center
05:44AM 44.8333 -63.2167 68° East 310 357 11,500 1,680 Climbing Moncton Center
05:45AM 44.8833 -63.1000 59° Northeast 370 426 12,700 1,680 Climbing Moncton Center
05:46AM 44.9333 -62.9500 65° Northeast 380 437 14,900 1,860 Climbing Moncton Center
05:47AM 44.9833 -62.8333 59° Northeast 400 460 16,500 1,740 Climbing Moncton Center
05:48AM 45.0500 -62.7000 55° Northeast 410 472 18,400 1,800 Climbing Moncton Center
05:49AM 45.1000 -62.5667 62° Northeast 410 472 20,100 1,440 Climbing Moncton Center
05:50AM 45.1667 -62.4333 55° Northeast 420 483 21,300 1,440 Climbing Moncton Center
05:51AM 45.2500 -62.2833 52° Northeast 430 495 23,000 1,500 Climbing Moncton Center
05:52AM 45.3167 -62.1333 58° Northeast 440 506 24,300 1,140 Climbing Moncton Center
05:53AM 45.3833 -61.9833 58° Northeast 440 506 25,300 1,260 Climbing Moncton Center
05:54AM 45.4667 -61.8500 48° Northeast 450 518 26,900 1,740 Climbing Moncton Center
05:55AM 45.5333 -61.7000 58° Northeast 440 506 28,800 1,500 Climbing Moncton Center
05:56AM 45.5833 -61.5833 58° Northeast 430 495 29,900 1,140 Climbing Moncton Center
05:57AM 45.6667 -61.4333 51° Northeast 440 506 31,100 1,200 Climbing Moncton Center
05:58AM 45.7333 -61.2833 57° Northeast 440 506 32,400 1,080 Climbing Moncton Center
05:59AM 45.8167 -61.1333 51° Northeast 440 506 33,300 900 Climbing Moncton Center
06:00AM 45.8667 -60.9833 64° Northeast 440 506 34,200 1,260 Climbing Moncton Center
06:01AM 45.9500 -60.8333 51° Northeast 440 506 35,900 1,380 Climbing Moncton Center
06:02AM 46.0167 -60.7167 51° Northeast 420 483 37,000 540 Climbing Moncton Center
06:03AM 46.0833 -60.5667 57° Northeast 420 483 37,000  Level Moncton Center
06:04AM 46.1333 -60.4167 64° Northeast 430 495 37,000  Level Moncton Center
06:05AM 46.2167 -60.2833 48° Northeast 430 495 37,000  Level Moncton Center
06:06AM 46.2833 -60.1333 57° Northeast 430 495 37,000  Level Moncton Center
06:07AM 46.3333 -59.9833 64° Northeast 440 506 37,000  Level Moncton Center
06:08AM 46.4167 -59.8333 51° Northeast 440 506 37,000  Level Moncton Center
06:09AM 46.4833 -59.6833 57° Northeast 440 506 37,000  Level Moncton Center
06:10AM 46.5500 -59.5333 57° Northeast 440 506 37,000  Level Gander Center
06:11AM 46.6167 -59.3833 57° Northeast 440 506 37,000  Level Gander Center
06:12AM 46.6833 -59.2333 57° Northeast 440 506 37,000  Level Gander Center
06:13AM 46.7333 -59.1167 58° Northeast 440 506 37,000  Level Gander Center
06:14AM 46.8167 -58.9333 56° Northeast 440 506 37,000  Level Gander Center
06:15AM 46.8833 -58.8167 50° Northeast 440 506 37,000  Level Gander Center
06:16AM 46.9500 -58.6333 62° Northeast 440 506 37,000  Level Gander Center
06:17AM 47.0000 -58.4667 66° East 450 518 37,000  Level Gander Center
06:18AM 47.0000 -58.3000 90° East 470 541 37,000  Level Gander Center
06:19AM 47.0333 -58.1000 76° East 480 552 37,000  Level Gander Center
06:20AM 47.0500 -57.9000 83° East 470 541 37,000  Level Gander Center
06:21AM 47.0667 -57.7000 83° East 470 541 37,000  Level Gander Center
06:22AM 47.0833 -57.5333 82° East 470 541 37,000  Level Gander Center
06:23AM 47.1000 -57.3000 84° East 480 552 37,000  Level Gander Center
06:24AM 47.1167 -57.1333 82° East 480 552 37,000  Level Gander Center
06:25AM 47.1500 -56.9333 76° East 480 552 37,000  Level Gander Center
06:26AM 47.1667 -56.7333 83° East 490 564 37,000  Level Gander Center
06:27AM 47.2000 -56.5667 74° East 490 564 37,000  Level Gander Center
06:28AM 47.2167 -56.3333 84° East 490 564 37,000  Level Gander Center
06:29AM 47.2500 -56.1667 74° East 490 564 37,000  Level Gander Center
06:30AM 47.2667 -55.9333 84° East 490 564 37,000  Level Gander Center
06:31AM 47.3000 -55.7667 74° East 490 564 37,000  Level Gander Center
06:32AM 47.3167 -55.5333 84° East 490 564 37,000  Level Gander Center
06:33AM 47.3333 -55.3667 82° East 490 564 37,000  Level Gander Center
06:34AM 47.3667 -55.1667 76° East 500 575 37,000 -180 Level Gander Center
06:35AM 47.3833 -54.9333 84° East 500 575 36,700 -1,320 Descending Gander Center
06:36AM 47.4000 -54.7667 82° East 490 564 34,400 -2,760 Descending Gander Center
06:37AM 47.4333 -54.5667 76° East 480 552 31,200 -3,540 Descending Gander Center
06:38AM 47.4500 -54.3667 83° East 480 552 27,400 -4,020 Descending Gander Center
06:39AM 47.4667 -54.1667 83° East 480 552 23,200 -3,900 Descending Gander Center
06:40AM 47.4833 -53.9833 82° East 480 552 19,600 -3,480 Descending Gander Center
06:41AM 47.5167 -53.7833 76° East 460 529 16,300 -3,360 Descending Gander Center
06:42AM 47.5333 -53.6000 82° East 430 495 12,900 -2,820 Descending Gander Center
06:43AM 47.5333 -53.4833 90° East 390 449 10,700 -1,860 Descending Gander Center
06:44AM 47.5667 -53.3333 72° East 310 357 9,200 -1,500 Descending Gander Center
06:45AM 47.5667 -53.2333 90° East 280 322 7,700 -1,560 Descending Gander Center
06:46AM 47.5833 -53.1333 76° East 260 299 6,100 -1,620 Descending Gander Center
06:47AM 47.5833 -53.0167 90° East 250 288 4,500 -1,500 Descending Gander Center
06:48AM 47.6000 -52.9167 76° East 240 276 3,200 -1,200 Descending Gander Center
06:49AM 47.6000 -52.8500 90° East 200 230 2,100 -1,140 Descending Gander Center